createdAt,value
2019-05-21T00:00:27.581Z,68.77
2019-05-21T00:02:56.322Z,69.47
2019-05-21T00:05:25.018Z,69.84
2019-05-21T00:07:53.726Z,69.85
2019-05-21T00:10:22.498Z,70.31
2019-05-21T00:12:51.230Z,69.96
2019-05-21T00:15:21.018Z,69.87
2019-05-21T00:17:49.717Z,70.15
2019-05-21T00:20:18.519Z,70.68
2019-05-21T00:22:47.256Z,71.00
2019-05-21T00:25:17.366Z,71.30
2019-05-21T00:27:46.432Z,71.39
2019-05-21T00:30:51.027Z,71.72
2019-05-21T00:33:55.653Z,71.64
2019-05-21T00:37:01.698Z,72.08
2019-05-21T00:40:06.797Z,71.86
2019-05-21T00:42:38.416Z,71.90
2019-05-21T00:45:12.006Z,71.86
2019-05-21T00:47:40.692Z,71.22
2019-05-21T00:50:10.393Z,71.45
2019-05-21T00:52:39.140Z,71.61
2019-05-21T00:55:08.074Z,72.13
2019-05-21T00:57:36.823Z,72.58
2019-05-21T01:00:08.838Z,72.84
2019-05-21T01:02:37.588Z,72.43
2019-05-21T01:05:06.694Z,72.51
2019-05-21T01:07:35.452Z,73.16
2019-05-21T01:10:06.371Z,72.97
2019-05-21T01:12:35.085Z,72.56
2019-05-21T01:15:05.902Z,72.49
2019-05-21T01:17:34.604Z,72.71
2019-05-21T01:20:03.351Z,72.65
2019-05-21T01:22:32.059Z,72.66
2019-05-21T01:25:00.767Z,72.30
2019-05-21T01:27:29.471Z,71.95
2019-05-21T01:29:58.172Z,72.08
2019-05-21T01:32:26.911Z,72.31
2019-05-21T01:34:55.610Z,72.90
2019-05-21T01:37:24.318Z,72.98
2019-05-21T01:39:53.027Z,72.96
2019-05-21T01:42:21.731Z,73.01
2019-05-21T01:44:50.465Z,73.29
2019-05-21T01:47:19.176Z,73.32
2019-05-21T01:49:47.880Z,73.73
2019-05-21T01:52:16.601Z,74.15
2019-05-21T01:54:45.312Z,74.40
2019-05-21T01:57:14.047Z,74.28
2019-05-21T01:59:42.753Z,74.50
2019-05-21T02:02:11.475Z,74.63
2019-05-21T02:04:40.184Z,75.06
2019-05-21T02:07:08.885Z,75.24
2019-05-21T02:09:55.565Z,75.25
2019-05-21T02:12:24.270Z,75.41
2019-05-21T02:14:52.971Z,75.38
2019-05-21T02:17:21.684Z,74.88
2019-05-21T02:19:50.395Z,75.75
2019-05-21T02:22:19.146Z,75.75
2019-05-21T02:24:47.955Z,76.29
2019-05-21T02:27:16.667Z,76.54
2019-05-21T02:29:45.386Z,77.06
2019-05-21T02:32:14.087Z,77.17
2019-05-21T02:34:42.845Z,76.99
2019-05-21T02:37:11.559Z,76.82
2019-05-21T02:39:40.260Z,76.78
2019-05-21T02:42:08.971Z,77.19
2019-05-21T02:44:37.667Z,77.51
2019-05-21T02:47:06.416Z,77.31
2019-05-21T02:49:35.150Z,77.62
2019-05-21T02:52:03.852Z,77.36
2019-05-21T02:54:40.737Z,77.44
2019-05-21T02:57:02.995Z,77.28
2019-05-21T02:59:31.749Z,77.22
2019-05-21T03:02:05.024Z,77.36
2019-05-21T03:04:33.838Z,77.00
2019-05-21T03:07:17.525Z,77.03
2019-05-21T03:09:48.137Z,77.42
2019-05-21T03:12:17.922Z,77.60
2019-05-21T03:14:47.377Z,77.11
2019-05-21T03:17:16.083Z,77.33
2019-05-21T03:19:44.872Z,77.17
2019-05-21T03:22:13.584Z,77.17
2019-05-21T03:24:42.403Z,77.04
2019-05-21T03:27:11.712Z,76.90
2019-05-21T03:29:40.425Z,75.90
2019-05-21T03:32:09.178Z,73.65
2019-05-21T03:34:38.010Z,71.82
2019-05-21T03:37:06.730Z,69.08
2019-05-21T03:39:35.502Z,67.67
2019-05-21T03:42:04.309Z,66.66
2019-05-21T03:44:33.324Z,65.20
2019-05-21T03:47:02.020Z,62.85
2019-05-21T03:49:30.740Z,60.88
2019-05-21T03:51:59.483Z,59.82
2019-05-21T03:54:28.190Z,58.89
2019-05-21T03:56:56.901Z,56.57
2019-05-21T03:59:25.668Z,55.17
2019-05-21T04:01:54.373Z,53.40
2019-05-21T04:04:23.082Z,52.12
2019-05-21T04:06:52.785Z,49.72
2019-05-21T04:09:21.779Z,48.64
2019-05-21T04:11:53.300Z,47.99
2019-05-21T04:14:34.263Z,47.14
2019-05-21T04:17:07.591Z,48.17
2019-05-21T04:19:44.060Z,46.54
2019-05-21T04:22:15.718Z,45.63
2019-05-21T04:24:44.926Z,45.69
2019-05-21T04:27:14.839Z,44.86
2019-05-21T04:29:43.751Z,43.95
2019-05-21T04:32:12.455Z,43.09
2019-05-21T04:34:41.299Z,42.79
2019-05-21T04:37:11.786Z,42.44
2019-05-21T04:39:40.457Z,42.10
2019-05-21T04:42:09.291Z,40.85
2019-05-21T04:44:37.986Z,40.47
2019-05-21T04:47:06.693Z,39.81
2019-05-21T04:49:35.412Z,39.42
2019-05-21T04:52:04.117Z,38.76
2019-05-21T04:54:32.872Z,38.48
2019-05-21T04:57:01.587Z,37.58
2019-05-21T04:59:30.307Z,37.87
2019-05-21T05:01:59.047Z,37.70
2019-05-21T05:04:27.766Z,37.55
2019-05-21T05:06:56.513Z,36.90
2019-05-21T05:09:25.220Z,36.38
2019-05-21T05:11:53.924Z,36.08
2019-05-21T05:14:22.641Z,35.77
2019-05-21T05:16:54.303Z,35.95
2019-05-21T05:19:23.043Z,35.90
2019-05-21T05:21:51.758Z,36.46
2019-05-21T05:24:20.474Z,36.79
2019-05-21T05:26:49.178Z,36.13
2019-05-21T05:29:17.892Z,36.82
2019-05-21T05:31:46.647Z,36.69
2019-05-21T05:34:15.361Z,36.83
2019-05-21T05:36:44.073Z,36.62
2019-05-21T05:39:14.551Z,36.08
2019-05-21T05:41:43.264Z,36.17
2019-05-21T05:44:12.023Z,36.56
2019-05-21T05:46:40.764Z,35.94
2019-05-21T05:49:11.039Z,35.96
2019-05-21T05:51:39.752Z,35.92
2019-05-21T05:54:08.486Z,35.67
2019-05-21T05:56:37.217Z,35.56
2019-05-21T05:59:05.932Z,35.55
2019-05-21T06:01:35.247Z,35.85
2019-05-21T06:04:03.962Z,37.48
2019-05-21T06:06:32.678Z,39.19
2019-05-21T06:09:01.429Z,41.41
2019-05-21T06:11:30.134Z,43.92
2019-05-21T06:13:58.840Z,46.17
2019-05-21T06:16:27.563Z,47.58
2019-05-21T06:18:56.275Z,48.01
2019-05-21T06:21:25.042Z,47.61
2019-05-21T06:23:53.748Z,48.35
2019-05-21T06:26:22.566Z,48.73
2019-05-21T06:28:51.299Z,49.31
2019-05-21T06:31:20.010Z,49.17
2019-05-21T06:33:48.755Z,49.14
2019-05-21T06:36:17.491Z,48.60
2019-05-21T06:38:46.182Z,48.60
2019-05-21T06:41:15.173Z,48.77
2019-05-21T06:43:43.894Z,48.96
2019-05-21T06:46:12.654Z,47.90
2019-05-21T06:48:41.373Z,48.16
2019-05-21T06:51:10.196Z,49.50
2019-05-21T06:53:38.964Z,50.88
2019-05-21T06:56:07.979Z,51.92
2019-05-21T06:58:37.000Z,51.21
2019-05-21T07:01:05.836Z,50.94
2019-05-21T07:03:34.536Z,49.31
2019-05-21T07:06:03.252Z,50.29
2019-05-21T07:08:35.108Z,51.59
2019-05-21T07:11:02.430Z,51.48
2019-05-21T07:13:31.330Z,51.39
2019-05-21T07:16:00.054Z,51.81
2019-05-21T07:18:28.735Z,50.90
2019-05-21T07:20:57.454Z,50.13
2019-05-21T07:23:26.225Z,48.79
2019-05-21T07:25:54.944Z,49.44
2019-05-21T07:28:23.666Z,49.95
2019-05-21T07:30:52.391Z,49.13
2019-05-21T07:33:21.978Z,48.47
2019-05-21T07:35:50.733Z,49.07
2019-05-21T07:38:19.448Z,49.52
2019-05-21T07:40:48.162Z,49.07
2019-05-21T07:43:16.903Z,49.64
2019-05-21T07:45:45.618Z,48.49
2019-05-21T07:48:14.834Z,47.58
2019-05-21T07:50:43.585Z,47.15
2019-05-21T07:53:12.298Z,48.05
2019-05-21T07:55:41.015Z,48.92
2019-05-21T07:58:09.786Z,48.88
2019-05-21T08:00:38.494Z,48.71
2019-05-21T08:03:07.209Z,49.44
2019-05-21T08:05:35.936Z,49.39
2019-05-21T08:08:04.646Z,49.49
2019-05-21T08:10:33.391Z,49.46
2019-05-21T08:13:02.100Z,50.02
2019-05-21T08:15:30.806Z,49.56
2019-05-21T08:17:59.523Z,48.76
2019-05-21T08:20:28.524Z,49.34
2019-05-21T08:22:57.282Z,49.90
2019-05-21T08:25:25.994Z,49.58
2019-05-21T08:27:54.709Z,49.35
2019-05-21T08:30:23.490Z,49.60
2019-05-21T08:32:52.216Z,49.37
2019-05-21T08:35:20.963Z,48.18
2019-05-21T08:37:49.678Z,49.09
2019-05-21T08:40:18.887Z,49.06
2019-05-21T08:42:47.597Z,48.94
2019-05-21T08:45:16.418Z,47.41
2019-05-21T08:47:45.163Z,47.76
2019-05-21T08:50:14.064Z,47.93
2019-05-21T08:52:42.778Z,48.03
2019-05-21T08:55:11.485Z,46.10
2019-05-21T08:57:40.191Z,46.83
2019-05-21T09:00:15.552Z,46.86
2019-05-21T09:02:44.253Z,47.42
2019-05-21T09:05:13.156Z,45.89
2019-05-21T09:07:41.872Z,45.94
2019-05-21T09:10:10.881Z,47.01
2019-05-21T09:12:39.584Z,47.32
2019-05-21T09:15:09.685Z,46.66
2019-05-21T09:17:38.439Z,45.77
2019-05-21T09:20:09.215Z,45.33
2019-05-21T09:22:39.263Z,44.66
2019-05-21T09:25:08.060Z,45.01
2019-05-21T09:27:37.469Z,45.67
2019-05-21T09:30:11.362Z,44.89
2019-05-21T09:32:40.039Z,45.02
2019-05-21T09:35:10.235Z,44.37
2019-05-21T09:37:39.456Z,44.76
2019-05-21T09:40:09.757Z,45.08
2019-05-21T09:42:38.605Z,45.38
2019-05-21T09:45:08.729Z,46.55
2019-05-21T09:47:37.561Z,44.03
2019-05-21T09:50:07.958Z,44.52
2019-05-21T09:52:36.651Z,44.64
2019-05-21T09:55:08.947Z,45.13
2019-05-21T09:57:39.436Z,45.02
2019-05-21T10:00:20.771Z,44.22
2019-05-21T10:02:49.487Z,43.86
2019-05-21T10:05:18.289Z,42.72
2019-05-21T10:07:47.048Z,44.26
2019-05-21T10:10:15.855Z,43.08
2019-05-21T10:12:44.558Z,43.69
2019-05-21T10:15:13.868Z,43.95
2019-05-21T10:17:42.588Z,43.78
2019-05-21T10:20:11.428Z,44.26
2019-05-21T10:22:40.136Z,44.39
2019-05-21T10:25:08.682Z,44.04
2019-05-21T10:27:37.416Z,43.68
2019-05-21T10:30:06.921Z,44.02
2019-05-21T10:32:35.619Z,43.71
2019-05-21T10:35:07.459Z,43.58
2019-05-21T10:37:36.303Z,43.68
2019-05-21T10:40:07.166Z,44.26
2019-05-21T10:42:35.957Z,43.40
2019-05-21T10:45:06.319Z,44.56
2019-05-21T10:47:35.037Z,44.46
2019-05-21T10:50:05.554Z,45.44
2019-05-21T10:52:34.301Z,44.98
2019-05-21T10:55:03.016Z,45.19
2019-05-21T10:57:31.728Z,44.93
2019-05-21T11:00:00.443Z,45.20
2019-05-21T11:02:33.489Z,45.94
2019-05-21T11:05:09.818Z,45.58
2019-05-21T11:07:38.623Z,44.29
2019-05-21T11:10:09.090Z,43.97
2019-05-21T11:12:37.786Z,44.05
2019-05-21T11:15:07.896Z,44.13
2019-05-21T11:17:50.043Z,43.54
2019-05-21T11:20:07.239Z,43.67
2019-05-21T11:22:35.980Z,44.30
2019-05-21T11:25:06.382Z,43.51
2019-05-21T11:27:35.087Z,42.35
2019-05-21T11:30:05.119Z,41.66
2019-05-21T11:32:33.822Z,40.66
2019-05-21T11:35:02.575Z,40.71
2019-05-21T11:37:31.288Z,40.96
2019-05-21T11:39:59.993Z,40.02
2019-05-21T11:42:28.714Z,39.79
2019-05-21T11:44:57.431Z,39.79
2019-05-21T11:47:26.181Z,40.23
2019-05-21T11:49:54.907Z,39.64
2019-05-21T11:52:23.612Z,39.64
2019-05-21T11:54:55.789Z,39.04
2019-05-21T11:57:22.759Z,38.69
2019-05-21T11:59:51.504Z,38.67
2019-05-21T12:02:20.220Z,39.38
2019-05-21T12:04:48.939Z,39.80
2019-05-21T12:07:17.665Z,41.11
2019-05-21T12:09:46.370Z,41.54
2019-05-21T12:12:16.584Z,40.95
2019-05-21T12:14:45.294Z,41.69
2019-05-21T12:17:14.005Z,41.02
2019-05-21T12:19:42.715Z,40.58
2019-05-21T12:22:11.423Z,39.99
2019-05-21T12:24:40.138Z,40.73
2019-05-21T12:27:08.839Z,39.78
2019-05-21T12:29:37.649Z,39.78
2019-05-21T12:32:06.367Z,39.88
2019-05-21T12:34:38.768Z,39.88
2019-05-21T12:37:05.633Z,40.70
2019-05-21T12:39:34.451Z,40.61
2019-05-21T12:42:03.228Z,39.98
2019-05-21T12:44:31.979Z,39.96
2019-05-21T12:47:00.686Z,40.47
2019-05-21T12:49:29.433Z,40.18
2019-05-21T12:51:58.135Z,40.99
2019-05-21T12:54:26.845Z,40.11
2019-05-21T12:56:55.591Z,40.24
2019-05-21T12:59:24.292Z,39.30
2019-05-21T13:01:53.024Z,39.30
2019-05-21T13:04:21.754Z,39.21
2019-05-21T13:06:50.472Z,39.45
2019-05-21T13:09:32.418Z,40.71
2019-05-21T13:11:49.621Z,41.38
2019-05-21T13:14:19.001Z,40.32
2019-05-21T13:16:48.044Z,41.23
2019-05-21T13:19:16.763Z,39.36
2019-05-21T13:21:45.588Z,39.53
2019-05-21T13:24:14.281Z,40.96
2019-05-21T13:26:42.989Z,39.33
2019-05-21T13:29:11.711Z,40.36
2019-05-21T13:31:40.424Z,40.93
2019-05-21T13:34:09.170Z,39.94
2019-05-21T13:36:37.879Z,38.52
2019-05-21T13:39:09.186Z,37.81
2019-05-21T13:41:37.906Z,38.00
2019-05-21T13:44:06.620Z,38.27
2019-05-21T13:46:35.849Z,37.94
2019-05-21T13:49:05.074Z,37.10
2019-05-21T13:51:33.780Z,36.72
2019-05-21T13:54:02.535Z,36.67
2019-05-21T13:56:31.239Z,36.11
2019-05-21T13:59:00.054Z,35.23
2019-05-21T14:01:39.992Z,35.92
2019-05-21T14:03:59.212Z,36.25
2019-05-21T14:06:27.921Z,36.14
2019-05-21T14:08:56.651Z,36.41
2019-05-21T14:11:25.758Z,37.18
2019-05-21T14:13:54.624Z,37.05
2019-05-21T14:16:23.642Z,37.82
2019-05-21T14:18:52.644Z,37.79
2019-05-21T14:21:21.375Z,37.79
2019-05-21T14:23:50.082Z,37.96
2019-05-21T14:26:18.791Z,39.20
2019-05-21T14:28:47.507Z,38.07
2019-05-21T14:31:16.246Z,38.07
2019-05-21T14:33:46.867Z,38.10
2019-05-21T14:36:15.454Z,37.21
2019-05-21T14:38:44.167Z,37.58
2019-05-21T14:41:12.875Z,37.85
2019-05-21T14:43:41.585Z,36.97
2019-05-21T14:46:10.220Z,36.25
2019-05-21T14:48:39.030Z,36.45
2019-05-21T14:51:07.733Z,36.45
2019-05-21T14:53:36.438Z,38.14
2019-05-21T14:56:05.202Z,37.26
2019-05-21T14:58:33.914Z,37.43
2019-05-21T15:01:02.618Z,38.31
2019-05-21T15:03:31.365Z,37.65
2019-05-21T15:06:00.074Z,37.75
2019-05-21T15:08:28.813Z,37.90
2019-05-21T15:10:57.503Z,37.90
2019-05-21T15:13:26.216Z,37.89
2019-05-21T15:15:55.015Z,37.10
2019-05-21T15:18:23.770Z,37.15
2019-05-21T15:20:56.844Z,36.21
2019-05-21T15:23:25.672Z,36.21
2019-05-21T15:25:54.370Z,36.49
2019-05-21T15:28:23.085Z,36.09
2019-05-21T15:30:51.787Z,35.40
2019-05-21T15:33:20.544Z,36.30
2019-05-21T15:35:49.259Z,36.29
2019-05-21T15:38:18.141Z,36.65
2019-05-21T15:40:46.890Z,36.67
2019-05-21T15:43:15.604Z,36.83
2019-05-21T15:45:44.307Z,36.83
2019-05-21T15:48:13.051Z,37.25
2019-05-21T15:50:41.759Z,37.25
2019-05-21T15:53:10.482Z,34.59
2019-05-21T15:55:39.177Z,35.29
2019-05-21T15:58:07.980Z,34.37
2019-05-21T16:00:36.723Z,34.14
2019-05-21T16:03:05.629Z,34.59
2019-05-21T16:05:34.647Z,36.39
2019-05-21T16:08:03.391Z,35.54
2019-05-21T16:10:32.113Z,34.78
2019-05-21T16:13:00.823Z,35.39
2019-05-21T16:15:29.542Z,35.61
2019-05-21T16:17:58.245Z,35.80
2019-05-21T16:20:26.993Z,36.27
2019-05-21T16:22:55.826Z,35.76
2019-05-21T16:25:24.592Z,36.15
2019-05-21T16:27:53.335Z,35.75
2019-05-21T16:30:22.049Z,36.44
2019-05-21T16:32:50.766Z,36.00
2019-05-21T16:35:19.583Z,36.18
2019-05-21T16:37:48.295Z,36.76
2019-05-21T16:40:18.131Z,36.99
2019-05-21T16:42:46.837Z,34.61
2019-05-21T16:45:16.980Z,34.29
2019-05-21T16:47:46.753Z,32.94
2019-05-21T16:50:16.110Z,32.69
2019-05-21T16:52:45.271Z,31.98
2019-05-21T16:55:14.790Z,32.59
2019-05-21T16:57:43.500Z,33.82
2019-05-21T17:00:15.212Z,33.66
2019-05-21T17:02:44.126Z,33.86
2019-05-21T17:05:12.990Z,34.20
2019-05-21T17:07:41.682Z,34.78
2019-05-21T17:10:12.191Z,35.31
2019-05-21T17:12:40.947Z,36.26
2019-05-21T17:15:09.961Z,36.79
2019-05-21T17:17:38.706Z,36.33
2019-05-21T17:20:10.730Z,36.97
2019-05-21T17:22:39.505Z,37.35
2019-05-21T17:25:10.118Z,37.60
2019-05-21T17:27:38.833Z,38.06
2019-05-21T17:30:09.363Z,38.27
2019-05-21T17:32:39.036Z,38.36
2019-05-21T17:35:08.862Z,38.71
2019-05-21T17:37:37.698Z,38.80
2019-05-21T17:40:07.494Z,39.46
2019-05-21T17:42:36.201Z,39.60
2019-05-21T17:45:07.908Z,39.65
2019-05-21T17:47:36.627Z,40.12
2019-05-21T17:50:09.420Z,40.50
2019-05-21T17:52:38.176Z,40.65
2019-05-21T17:55:07.212Z,40.91
2019-05-21T17:57:36.005Z,42.73
2019-05-21T18:00:07.306Z,42.81
2019-05-21T18:02:36.413Z,44.16
2019-05-21T18:05:07.519Z,45.49
2019-05-21T18:07:37.473Z,45.87
2019-05-21T18:10:09.275Z,46.46
2019-05-21T18:12:38.848Z,46.77
2019-05-21T18:15:09.057Z,46.86
2019-05-21T18:17:37.763Z,47.15
2019-05-21T18:20:11.349Z,46.84
2019-05-21T18:22:42.052Z,46.57
2019-05-21T18:25:11.661Z,46.79
2019-05-21T18:27:40.416Z,45.83
2019-05-21T18:30:09.633Z,43.73
2019-05-21T18:32:38.341Z,45.21
2019-05-21T18:35:08.458Z,44.90
2019-05-21T18:37:38.421Z,44.29
2019-05-21T18:40:09.160Z,44.41
2019-05-21T18:42:37.962Z,44.40
2019-05-21T18:45:07.462Z,44.58
2019-05-21T18:47:36.310Z,44.76
2019-05-21T18:50:07.577Z,44.65
2019-05-21T18:52:36.285Z,44.58
2019-05-21T18:55:06.904Z,44.53
2019-05-21T18:57:35.742Z,44.61
2019-05-21T19:00:06.920Z,44.57
2019-05-21T19:02:35.620Z,44.40
2019-05-21T19:05:06.265Z,44.69
2019-05-21T19:07:35.070Z,45.09
2019-05-21T19:10:05.386Z,45.31
2019-05-21T19:12:38.191Z,45.28
2019-05-21T19:15:06.524Z,45.42
2019-05-21T19:17:36.066Z,45.57
2019-05-21T19:20:06.881Z,46.10
2019-05-21T19:22:36.485Z,46.18
2019-05-21T19:25:09.194Z,46.51
2019-05-21T19:27:37.926Z,46.69
2019-05-21T19:30:09.242Z,46.85
2019-05-21T19:32:38.011Z,46.83
2019-05-21T19:35:07.656Z,46.55
2019-05-21T19:37:36.376Z,46.66
2019-05-21T19:40:06.295Z,46.79
2019-05-21T19:42:35.026Z,46.84
2019-05-21T19:45:07.288Z,46.78
2019-05-21T19:47:36.096Z,46.66
2019-05-21T19:50:07.759Z,46.73
2019-05-21T19:52:36.533Z,46.68
2019-05-21T19:55:07.150Z,46.98
2019-05-21T19:57:36.376Z,46.87
2019-05-21T20:00:07.613Z,46.92
2019-05-21T20:02:36.629Z,47.01
2019-05-21T20:05:07.404Z,46.75
2019-05-21T20:07:36.119Z,46.69
2019-05-21T20:10:09.128Z,47.07
2019-05-21T20:12:38.299Z,47.43
2019-05-21T20:15:08.614Z,48.42
2019-05-21T20:17:39.008Z,48.86
2019-05-21T20:20:10.647Z,49.50
2019-05-21T20:22:41.044Z,49.99
2019-05-21T20:25:11.340Z,50.43
2019-05-21T20:27:40.667Z,50.96
2019-05-21T20:30:13.674Z,51.81
2019-05-21T20:32:44.391Z,52.34
2019-05-21T20:35:15.445Z,52.75
2019-05-21T20:37:45.207Z,53.37
2019-05-21T20:40:15.065Z,53.79
2019-05-21T20:42:44.979Z,54.30
2019-05-21T20:45:15.751Z,54.66
2019-05-21T20:47:46.148Z,55.18
2019-05-21T20:50:16.647Z,55.25
2019-05-21T20:52:46.192Z,55.54
2019-05-21T20:55:17.221Z,55.71
2019-05-21T20:57:46.010Z,55.64
2019-05-21T21:00:18.041Z,55.92
2019-05-21T21:02:47.340Z,56.01
2019-05-21T21:05:17.049Z,56.25
2019-05-21T21:07:45.756Z,56.12
2019-05-21T21:10:14.764Z,55.80
2019-05-21T21:12:44.821Z,55.81
2019-05-21T21:15:14.719Z,55.50
2019-05-21T21:17:44.327Z,55.71
2019-05-21T21:20:13.346Z,55.71
2019-05-21T21:22:42.059Z,55.89
2019-05-21T21:25:12.599Z,55.69
2019-05-21T21:27:42.513Z,55.87
2019-05-21T21:30:11.605Z,56.07
2019-05-21T21:32:40.414Z,56.28
2019-05-21T21:35:10.920Z,56.08
2019-05-21T21:37:39.665Z,56.06
2019-05-21T21:40:10.139Z,56.14
2019-05-21T21:42:39.752Z,56.42
2019-05-21T21:45:09.594Z,56.24
2019-05-21T21:47:39.600Z,56.37
2019-05-21T21:50:08.701Z,56.68
2019-05-21T21:52:37.515Z,56.99
2019-05-21T21:55:07.415Z,57.05
2019-05-21T21:57:36.273Z,56.97
2019-05-21T22:00:13.236Z,57.04
2019-05-21T22:02:42.800Z,57.38
2019-05-21T22:05:12.812Z,57.60
2019-05-21T22:07:41.510Z,57.73
2019-05-21T22:10:11.392Z,58.10
2019-05-21T22:12:40.213Z,58.31
2019-05-21T22:15:09.955Z,58.00
2019-05-21T22:17:38.671Z,57.86
2019-05-21T22:20:09.492Z,57.63
2019-05-21T22:22:38.303Z,57.52
2019-05-21T22:25:07.516Z,57.63
2019-05-21T22:27:36.266Z,57.61
2019-05-21T22:30:06.506Z,57.62
2019-05-21T22:32:35.351Z,57.92
2019-05-21T22:35:04.775Z,58.10
2019-05-21T22:37:33.478Z,58.25
2019-05-21T22:40:02.314Z,58.23
2019-05-21T22:42:31.337Z,58.09
2019-05-21T22:45:07.762Z,58.08
2019-05-21T22:47:31.176Z,58.05
2019-05-21T22:49:59.892Z,57.91
2019-05-21T22:52:28.804Z,57.86
2019-05-21T22:54:57.511Z,58.00
2019-05-21T22:57:26.466Z,57.91
2019-05-21T22:59:55.135Z,58.13
2019-05-21T23:02:25.510Z,58.34
2019-05-21T23:04:54.487Z,58.85
2019-05-21T23:07:23.229Z,59.10
2019-05-21T23:09:53.435Z,59.28
2019-05-21T23:12:22.700Z,59.29
2019-05-21T23:14:51.867Z,59.69
2019-05-21T23:17:21.173Z,60.02
2019-05-21T23:19:50.529Z,60.13
2019-05-21T23:22:22.316Z,60.28
2019-05-21T23:24:51.126Z,59.76
2019-05-21T23:27:20.876Z,59.62
2019-05-21T23:29:50.060Z,59.23
2019-05-21T23:32:18.861Z,59.02
2019-05-21T23:34:47.614Z,59.24
2019-05-21T23:37:17.881Z,59.05
2019-05-21T23:39:48.151Z,59.02
2019-05-21T23:42:28.651Z,59.13
2019-05-21T23:44:47.388Z,59.22
2019-05-21T23:47:16.130Z,59.07
2019-05-21T23:49:44.840Z,58.89
2019-05-21T23:52:13.543Z,58.94
2019-05-21T23:54:42.303Z,58.94
2019-05-21T23:57:14.184Z,59.00
2019-05-21T23:59:42.894Z,59.16
